Time;durP1;ratioP1;P1;durP2;ratioP2;P2;SDS_P1;SDS_P2;PMS_P1;PMS_P2;Temp;Humidity;BMP_temperature;BMP_pressure;BME280_temperature;BME280_humidity;BME280_pressure;Samples;Min_cycle;Max_cycle;Signal;HPM_P1;HPM_P2
2023/01/18 00:02:24;;;;;;;30.42;17.52;;;;;;;-2.92;100.00;98951.31;5052117;28;20033;-73
2023/01/18 00:04:50;;;;;;;29.05;16.63;;;;;;;-2.97;100.00;98953.78;5052304;28;20032;-75
2023/01/18 00:07:15;;;;;;;28.30;16.95;;;;;;;-2.98;100.00;98955.47;5052276;28;20056;-72
2023/01/18 00:09:40;;;;;;;29.05;16.90;;;;;;;-2.99;100.00;98953.69;5051996;28;20025;-72
2023/01/18 00:12:06;;;;;;;30.35;17.25;;;;;;;-3.05;100.00;98950.09;5051814;28;20041;-73
2023/01/18 00:14:31;;;;;;;28.98;17.48;;;;;;;-3.10;100.00;98939.63;5052437;28;20029;-73
2023/01/18 00:16:56;;;;;;;29.73;17.05;;;;;;;-3.13;100.00;98946.38;5052002;28;20025;-73
2023/01/18 00:19:22;;;;;;;29.58;17.27;;;;;;;-3.13;100.00;98951.56;5052064;28;20388;-76
2023/01/18 00:21:53;;;;;;;31.45;17.85;;;;;;;-3.11;100.00;98961.13;5051821;28;20036;-76
2023/01/18 00:24:22;;;;;;;28.95;16.83;;;;;;;-3.10;100.00;98955.13;5051881;28;20033;-72
2023/01/18 00:26:48;;;;;;;30.17;18.40;;;;;;;-3.07;100.00;98967.25;5055181;28;20495;-73
2023/01/18 00:29:14;;;;;;;30.83;17.83;;;;;;;-3.02;100.00;98955.34;5055796;28;20029;-74
2023/01/18 00:31:40;;;;;;;29.92;18.13;;;;;;;-3.01;100.00;98962.28;5055633;28;20075;-73
2023/01/18 00:34:06;;;;;;;31.27;18.00;;;;;;;-2.99;100.00;98964.03;5055495;28;20029;-73
2023/01/18 00:36:32;;;;;;;30.52;18.67;;;;;;;-3.00;100.00;98967.50;5055693;28;20029;-74
2023/01/18 00:38:59;;;;;;;29.88;18.67;;;;;;;-2.92;100.00;98966.81;5055593;28;20400;-73
2023/01/18 00:41:24;;;;;;;31.25;18.33;;;;;;;-3.02;100.00;98963.09;5051394;28;20025;-74
2023/01/18 00:43:50;;;;;;;30.00;18.38;;;;;;;-3.07;100.00;98972.41;5055548;28;20039;-75
2023/01/18 00:46:21;;;;;;;29.50;17.50;;;;;;;-3.12;100.00;98968.84;5055328;28;20056;-76
2023/01/18 00:48:47;;;;;;;29.35;18.05;;;;;;;-3.18;100.00;98970.41;5055264;28;20388;-73
2023/01/18 00:51:15;;;;;;;30.88;17.38;;;;;;;-3.23;100.00;98981.44;5055476;28;20029;-76
2023/01/18 00:53:43;;;;;;;30.60;18.48;;;;;;;-3.23;100.00;98976.25;5055183;28;20086;-74
2023/01/18 00:56:11;;;;;;;30.90;17.23;;;;;;;-3.35;100.00;98980.25;5055229;28;20028;-73
2023/01/18 00:58:36;;;;;;;28.90;17.38;;;;;;;-3.41;100.00;98963.66;5055269;28;20032;-75
2023/01/18 01:01:04;;;;;;;30.70;17.88;;;;;;;-3.51;100.00;98975.44;5055028;28;20031;-74
2023/01/18 01:06:42;;;;;;;30.38;17.77;;;;;;;-3.56;100.00;98972.72;5054968;28;20033;-73
2023/01/18 01:09:04;;;;;;;30.15;17.58;;;;;;;-3.54;100.00;98975.34;5052554;28;20040;-74
2023/01/18 01:11:30;;;;;;;29.95;16.95;;;;;;;-3.50;100.00;98972.03;5037096;28;20045;-79
2023/01/18 01:27:35;;;;;;;28.13;15.93;;;;;;;-3.42;100.00;98986.06;5052270;28;20063;-88
2023/01/18 01:30:02;;;;;;;29.02;16.17;;;;;;;-3.33;100.00;98985.47;5036655;28;20029;-76
2023/01/18 01:32:28;;;;;;;28.20;16.67;;;;;;;-3.41;100.00;98984.34;5037268;28;20033;-78
2023/01/18 01:34:53;;;;;;;28.25;16.55;;;;;;;-3.43;100.00;98994.63;5054362;28;20033;-73
2023/01/18 01:37:18;;;;;;;30.08;17.20;;;;;;;-3.37;100.00;98999.13;5053227;28;20094;-73
2023/01/18 01:39:44;;;;;;;29.33;16.75;;;;;;;-3.44;100.00;99005.78;5054534;28;20102;-88
2023/01/18 01:42:10;;;;;;;28.58;16.17;;;;;;;-3.48;100.00;99000.50;5054166;28;20483;-83
2023/01/18 01:44:44;;;;;;;31.42;16.48;;;;;;;-3.48;100.00;99005.66;5054450;28;20394;-72
2023/01/18 01:47:15;;;;;;;29.13;16.55;;;;;;;-3.48;100.00;99008.25;5054429;28;20032;-74
2023/01/18 01:49:47;;;;;;;29.35;16.58;;;;;;;-3.48;100.00;99021.16;5054195;28;20035;-79
2023/01/18 01:52:22;;;;;;;31.77;17.00;;;;;;;-3.46;100.00;99015.22;5054239;28;20021;-85
2023/01/18 01:54:58;;;;;;;27.58;16.30;;;;;;;-3.54;100.00;99021.84;5054064;28;20357;-72
2023/01/18 01:57:29;;;;;;;29.15;17.08;;;;;;;-3.59;100.00;99019.13;5054250;28;20029;-81
2023/01/18 02:00:06;;;;;;;29.08;16.55;;;;;;;-3.66;100.00;99014.56;5050183;28;20383;-73
2023/01/18 02:02:33;;;;;;;32.25;18.13;;;;;;;-3.68;100.00;99024.00;5050602;28;20036;-88
2023/01/18 02:04:59;;;;;;;30.90;16.98;;;;;;;-3.73;100.00;99017.78;5053965;28;20112;-88
2023/01/18 02:07:27;;;;;;;30.23;17.23;;;;;;;-3.72;100.00;99010.09;5049880;28;20044;-84
2023/01/18 02:09:54;;;;;;;29.30;16.75;;;;;;;-3.71;100.00;99011.00;5053787;28;20029;-87
2023/01/18 02:12:19;;;;;;;29.20;17.10;;;;;;;-3.75;100.00;99012.56;5053593;28;20083;-77
2023/01/18 02:14:44;;;;;;;29.13;17.00;;;;;;;-3.76;100.00;99010.81;5054132;28;20447;-76
2023/01/18 02:17:21;;;;;;;29.80;16.80;;;;;;;-3.83;100.00;99019.19;5053561;28;20400;-89
2023/01/18 02:20:18;;;;;;;32.08;16.95;;;;;;;-3.95;100.00;99019.66;5053620;28;20468;-87
2023/01/18 02:22:46;;;;;;;28.90;16.73;;;;;;;-3.95;100.00;99016.22;5024020;28;20068;-88
2023/01/18 02:25:39;;;;;;;28.45;17.35;;;;;;;-3.97;100.00;99010.13;5053481;28;20029;-89
2023/01/18 02:28:09;;;;;;;30.00;17.23;;;;;;;-4.00;100.00;99005.75;5050732;28;20056;-90
2023/01/18 02:30:52;;;;;;;29.27;17.70;;;;;;;-4.08;100.00;99013.25;5053570;28;20427;-88
2023/01/18 02:33:35;;;;;;;29.10;17.58;;;;;;;-4.17;100.00;99014.63;5035441;28;20025;-84
2023/01/18 02:36:03;;;;;;;29.85;17.92;;;;;;;-4.16;100.00;99021.56;5049917;28;20024;-74
2023/01/18 02:38:53;;;;;;;29.90;17.75;;;;;;;-4.18;100.00;99015.44;5053551;28;20447;-81
2023/01/18 02:46:29;;;;;;;29.08;18.02;;;;;;;-4.16;100.00;99029.28;5052380;28;20025;-76
2023/01/18 02:47:07;;;;;;;29.17;18.15;;;;;;;-4.24;100.00;99019.59;5050883;28;20035;-76
2023/01/18 02:49:33;;;;;;;30.85;18.10;;;;;;;-4.23;100.00;99038.53;5053232;28;20468;-75
2023/01/18 02:52:02;;;;;;;30.38;18.58;;;;;;;-4.16;100.00;99045.66;5053075;28;20029;-76
2023/01/18 02:54:29;;;;;;;30.05;18.40;;;;;;;-4.12;100.00;99038.88;5049103;28;20522;-77
2023/01/18 02:56:58;;;;;;;31.70;18.83;;;;;;;-4.07;100.00;99037.34;5053384;28;20039;-75
2023/01/18 02:59:33;;;;;;;30.92;18.88;;;;;;;-4.18;100.00;99036.09;5052887;28;20025;-76
2023/01/18 03:02:09;;;;;;;31.33;18.77;;;;;;;-4.15;100.00;99042.25;5049130;28;20072;-77
2023/01/18 03:04:43;;;;;;;32.38;19.38;;;;;;;-4.05;100.00;99039.16;5049944;28;20036;-76
2023/01/18 03:07:15;;;;;;;31.00;19.35;;;;;;;-4.11;100.00;99041.50;5052656;28;20025;-75
2023/01/18 03:09:41;;;;;;;32.25;20.13;;;;;;;-4.03;100.00;99046.94;5052934;28;20115;-74
2023/01/18 03:12:27;;;;;;;31.48;18.98;;;;;;;-4.06;100.00;99041.69;5034606;28;20045;-74
2023/01/18 03:15:07;;;;;;;30.73;19.70;;;;;;;-4.04;100.00;99040.03;5052621;28;20021;-76
2023/01/18 03:17:50;;;;;;;31.90;19.73;;;;;;;-4.05;100.00;99039.16;5049411;28;20029;-75
2023/01/18 03:20:24;;;;;;;31.55;19.25;;;;;;;-4.01;100.00;99047.00;5034719;28;20497;-75
2023/01/18 03:25:46;;;;;;;31.77;18.98;;;;;;;-4.12;100.00;99039.78;5050902;28;20454;-73
2023/01/18 03:34:01;;;;;;;30.50;18.50;;;;;;;-4.25;100.00;99041.03;5052656;28;20051;-76
2023/01/18 03:36:32;;;;;;;32.47;18.73;;;;;;;-4.30;100.00;99047.72;5048663;28;20067;-76
2023/01/18 03:39:04;;;;;;;30.35;18.63;;;;;;;-4.30;100.00;99047.72;5048658;28;20495;-76
2023/01/18 03:41:35;;;;;;;29.75;18.30;;;;;;;-4.30;100.00;99041.72;5048708;28;20029;-76
2023/01/18 03:44:10;;;;;;;31.25;19.63;;;;;;;-4.25;100.00;99050.47;5048831;28;20032;-76
2023/01/18 03:46:37;;;;;;;32.28;19.65;;;;;;;-4.21;100.00;99052.34;5049562;28;20040;-76
2023/01/18 03:49:03;;;;;;;33.97;19.63;;;;;;;-4.27;100.00;99050.41;5052567;28;20155;-76
2023/01/18 03:51:34;;;;;;;31.45;19.65;;;;;;;-4.27;100.00;99047.84;5052327;28;20091;-75
2023/01/18 03:54:08;;;;;;;30.55;18.90;;;;;;;-4.21;100.00;99070.41;5048644;28;20029;-76
2023/01/18 03:56:43;;;;;;;32.00;19.95;;;;;;;-4.15;100.00;99064.59;5049207;28;20029;-76
2023/01/18 03:59:08;;;;;;;30.65;20.35;;;;;;;-4.19;100.00;99071.34;5052470;28;20108;-76
2023/01/18 04:01:34;;;;;;;31.17;20.08;;;;;;;-4.18;100.00;99078.25;5055202;28;20124;-75
2023/01/18 04:04:00;;;;;;;31.95;19.35;;;;;;;-4.27;100.00;99085.69;5056287;28;20029;-74
2023/01/18 04:06:26;;;;;;;31.35;19.73;;;;;;;-4.20;100.00;99088.53;5056404;28;20119;-75
2023/01/18 04:08:52;;;;;;;31.15;19.77;;;;;;;-4.21;100.00;99088.47;5056056;28;20028;-76
2023/01/18 04:11:18;;;;;;;31.27;20.30;;;;;;;-4.21;100.00;99093.63;5055998;28;20079;-76
2023/01/18 04:13:43;;;;;;;32.83;20.40;;;;;;;-4.17;100.00;99092.06;5056188;28;20064;-75
2023/01/18 04:16:09;;;;;;;32.00;20.85;;;;;;;-4.20;100.00;99095.41;5056209;28;20083;-76
2023/01/18 04:18:34;;;;;;;32.97;20.42;;;;;;;-4.16;100.00;99096.41;5056140;28;20442;-75
2023/01/18 04:20:59;;;;;;;31.80;20.85;;;;;;;-4.14;100.00;99095.59;5055874;28;20476;-77
2023/01/18 04:23:25;;;;;;;32.40;20.73;;;;;;;-4.17;100.00;99094.63;5055767;28;20033;-76
2023/01/18 04:25:50;;;;;;;33.03;20.58;;;;;;;-4.19;100.00;99097.16;5055938;28;20037;-77
2023/01/18 04:28:24;;;;;;;32.30;20.15;;;;;;;-4.19;100.00;99099.75;5055766;28;20072;-75
2023/01/18 04:30:50;;;;;;;31.95;21.05;;;;;;;-4.17;100.00;99099.81;5055683;28;20020;-75
2023/01/18 04:33:16;;;;;;;32.10;20.95;;;;;;;-4.13;100.00;99102.53;5055863;28;20059;-75
2023/01/18 04:35:42;;;;;;;33.47;20.90;;;;;;;-4.16;100.00;99093.81;5055507;28;20025;-75
2023/01/18 04:38:07;;;;;;;31.08;20.67;;;;;;;-4.19;100.00;99094.59;5055518;28;20036;-75
2023/01/18 04:40:33;;;;;;;34.30;21.60;;;;;;;-4.17;100.00;99104.97;5055667;28;20032;-76
2023/01/18 04:42:58;;;;;;;32.50;21.42;;;;;;;-4.19;100.00;99110.06;5055342;28;20108;-76
2023/01/18 04:45:23;;;;;;;33.92;21.27;;;;;;;-4.20;100.00;99111.75;5037825;28;20052;-77
2023/01/18 04:47:49;;;;;;;32.20;20.98;;;;;;;-4.22;100.00;99116.00;5055534;28;20021;-76
2023/01/18 04:50:14;;;;;;;31.67;20.95;;;;;;;-4.21;100.00;99110.03;5055298;28;20032;-76
2023/01/18 04:52:39;;;;;;;32.10;21.65;;;;;;;-4.20;100.00;99116.91;5055211;28;20102;-82
2023/01/18 04:55:05;;;;;;;31.55;20.70;;;;;;;-4.26;100.00;99116.69;5037776;28;20491;-88
2023/01/18 04:57:31;;;;;;;32.30;21.00;;;;;;;-4.30;100.00;99120.00;5055216;28;20435;-88
2023/01/18 04:59:56;;;;;;;32.83;20.77;;;;;;;-4.31;100.00;99118.25;5055107;28;20044;-85
2023/01/18 05:02:21;;;;;;;32.55;20.95;;;;;;;-4.29;100.00;99116.59;5055225;28;20079;-82
2023/01/18 05:04:47;;;;;;;35.58;21.70;;;;;;;-4.28;100.00;99120.94;5037139;28;20128;-88
2023/01/18 05:07:12;;;;;;;33.35;21.58;;;;;;;-4.28;100.00;99128.69;5055197;28;20064;-84
2023/01/18 05:09:38;;;;;;;32.22;21.15;;;;;;;-4.34;100.00;99133.59;5037049;28;20057;-90
2023/01/18 05:12:03;;;;;;;32.92;21.25;;;;;;;-4.35;100.00;99134.44;5036725;28;20111;-88
2023/01/18 05:14:28;;;;;;;33.25;22.08;;;;;;;-4.33;100.00;99143.09;5055210;28;20508;-85
2023/01/18 05:16:54;;;;;;;33.25;22.08;;;;;;;-4.27;100.00;99140.75;5054798;28;20033;-88
2023/01/18 05:19:19;;;;;;;34.25;23.25;;;;;;;-4.26;100.00;99144.22;5054746;28;20112;-89
2023/01/18 05:21:44;;;;;;;34.95;22.45;;;;;;;-4.24;100.00;99138.31;5037097;28;20545;-88
2023/01/18 05:24:10;;;;;;;33.53;22.75;;;;;;;-4.20;100.00;99147.88;5054696;28;20028;-83
2023/01/18 05:26:35;;;;;;;31.55;21.73;;;;;;;-4.18;100.00;99155.69;5054932;28;20064;-86
2023/01/18 05:29:00;;;;;;;33.72;23.08;;;;;;;-4.13;100.00;99137.81;5054802;28;20033;-80
2023/01/18 05:31:26;;;;;;;35.28;22.70;;;;;;;-4.16;100.00;99155.75;5054542;28;20041;-83
2023/01/18 05:33:52;;;;;;;35.28;22.55;;;;;;;-4.17;100.00;99156.56;5054505;28;20029;-75
2023/01/18 05:36:17;;;;;;;33.28;23.00;;;;;;;-4.18;100.00;99153.09;5054653;28;20028;-75
2023/01/18 05:38:42;;;;;;;33.42;22.65;;;;;;;-4.18;100.00;99154.81;5054489;28;20073;-75
2023/01/18 05:41:08;;;;;;;33.80;22.58;;;;;;;-4.23;100.00;99158.09;5054658;28;20037;-75
2023/01/18 05:43:33;;;;;;;35.58;22.65;;;;;;;-4.22;100.00;99165.03;5054488;28;20025;-75
2023/01/18 05:45:59;;;;;;;33.65;23.25;;;;;;;-4.17;100.00;99162.59;5054397;28;20484;-75
2023/01/18 05:48:25;;;;;;;33.42;23.30;;;;;;;-4.21;100.00;99171.97;5054442;28;20063;-75
2023/01/18 05:50:50;;;;;;;34.42;24.35;;;;;;;-4.22;100.00;99175.34;5054449;28;20053;-75
2023/01/18 05:53:19;;;;;;;34.30;23.27;;;;;;;-4.26;100.00;99180.34;5054383;28;20044;-75
2023/01/18 05:55:53;;;;;;;36.47;24.65;;;;;;;-4.31;100.00;99172.44;5054331;28;20056;-75
2023/01/18 05:58:18;;;;;;;36.03;24.58;;;;;;;-4.29;100.00;99178.53;5054298;28;20056;-75
2023/01/18 06:00:44;;;;;;;35.13;24.77;;;;;;;-4.31;100.00;99185.34;5053985;28;20026;-75
2023/01/18 06:03:09;;;;;;;35.72;25.13;;;;;;;-4.31;100.00;99179.28;5053914;28;20253;-75
2023/01/18 06:05:34;;;;;;;35.53;25.05;;;;;;;-4.27;100.00;99176.00;5036333;28;20036;-75
2023/01/18 06:08:00;;;;;;;34.58;24.70;;;;;;;-4.30;100.00;99188.78;5036031;28;20028;-75
2023/01/18 06:10:26;;;;;;;34.88;24.65;;;;;;;-4.31;100.00;99192.19;5054276;28;20040;-75
2023/01/18 06:12:51;;;;;;;36.90;25.02;;;;;;;-4.32;100.00;99191.31;5052843;28;20049;-75
2023/01/18 06:15:16;;;;;;;34.53;24.25;;;;;;;-4.24;100.00;99189.91;5052776;28;20079;-75
2023/01/18 06:17:44;;;;;;;35.15;24.77;;;;;;;-4.24;100.00;99202.81;5053188;28;20037;-75
2023/01/18 06:20:11;;;;;;;36.92;24.63;;;;;;;-4.26;100.00;99203.56;5052747;28;20468;-75
2023/01/18 06:22:36;;;;;;;35.90;24.90;;;;;;;-4.25;100.00;99211.38;5052042;28;20496;-75
2023/01/18 06:25:02;;;;;;;36.00;24.92;;;;;;;-4.24;100.00;99204.50;5052880;28;20116;-75
2023/01/18 06:27:27;;;;;;;35.92;25.20;;;;;;;-4.27;100.00;99212.13;5052656;28;20120;-75
2023/01/18 06:29:53;;;;;;;35.35;24.63;;;;;;;-4.22;100.00;99219.22;5052855;28;20041;-75
2023/01/18 06:32:18;;;;;;;34.38;24.95;;;;;;;-4.27;100.00;99225.91;5052643;28;20029;-75
2023/01/18 06:34:43;;;;;;;35.55;24.58;;;;;;;-4.26;100.00;99227.66;5052430;28;20037;-75
2023/01/18 06:37:09;;;;;;;37.22;25.58;;;;;;;-4.26;100.00;99225.09;5052395;28;20443;-75
2023/01/18 06:39:34;;;;;;;36.63;25.20;;;;;;;-4.23;100.00;99227.78;5050790;28;20041;-78
2023/01/18 06:42:00;;;;;;;36.92;25.15;;;;;;;-4.17;100.00;99223.69;5032341;28;20059;-78
2023/01/18 06:44:25;;;;;;;36.25;24.83;;;;;;;-4.21;100.00;99218.41;5051222;28;20029;-78
2023/01/18 06:46:51;;;;;;;35.92;25.10;;;;;;;-4.17;100.00;99219.38;5038083;28;20045;-77
2023/01/18 06:49:16;;;;;;;35.45;25.52;;;;;;;-4.15;100.00;99238.41;5037071;28;20158;-78
2023/01/18 06:51:42;;;;;;;34.72;25.05;;;;;;;-4.10;100.00;99236.00;5033157;28;20070;-76
2023/01/18 06:54:07;;;;;;;35.58;25.15;;;;;;;-4.06;100.00;99240.47;5052476;28;20316;-77
2023/01/18 06:56:33;;;;;;;35.25;24.63;;;;;;;-4.15;100.00;99250.41;5051390;28;20388;-77
2023/01/18 06:58:59;;;;;;;35.38;25.17;;;;;;;-4.20;100.00;99250.25;5054390;28;20154;-77
2023/01/18 07:01:26;;;;;;;34.50;24.90;;;;;;;-4.14;100.00;99255.63;5052761;28;20040;-77
2023/01/18 07:03:51;;;;;;;34.97;24.83;;;;;;;-4.13;100.00;99252.25;5033671;28;20025;-76
2023/01/18 07:06:17;;;;;;;36.10;24.75;;;;;;;-4.07;100.00;99264.50;5052059;28;20036;-77
2023/01/18 07:08:42;;;;;;;35.50;25.25;;;;;;;-4.05;100.00;99268.00;5051050;28;20029;-76
2023/01/18 07:11:11;;;;;;;35.90;24.55;;;;;;;-3.98;100.00;99270.00;4996610;28;1153637;-77
2023/01/18 07:13:42;;;;;;;36.00;24.33;;;;;;;-3.98;100.00;99272.59;5054448;28;20376;-76
2023/01/18 07:16:16;;;;;;;34.75;24.38;;;;;;;-3.96;100.00;99273.53;5049321;28;20052;-76
2023/01/18 07:18:47;;;;;;;36.05;24.50;;;;;;;-3.99;100.00;99273.44;5052695;28;20025;-76
2023/01/18 07:21:14;;;;;;;33.17;23.65;;;;;;;-3.98;100.00;99275.16;5052694;28;20048;-76
2023/01/18 07:23:41;;;;;;;37.47;24.55;;;;;;;-3.93;100.00;99285.66;5051581;28;20068;-78
2023/01/18 07:26:09;;;;;;;33.42;23.35;;;;;;;-3.96;100.00;99281.28;5052670;28;20368;-76
2023/01/18 07:28:35;;;;;;;34.38;23.83;;;;;;;-4.00;100.00;99284.56;5055467;28;20559;-76
2023/01/18 07:31:02;;;;;;;35.20;23.63;;;;;;;-4.04;100.00;99280.97;5055652;28;20099;-77
2023/01/18 07:33:28;;;;;;;34.08;23.55;;;;;;;-3.98;100.00;99284.63;5051901;28;20029;-77
2023/01/18 07:35:55;;;;;;;33.03;23.42;;;;;;;-3.99;100.00;99286.34;5057743;28;20033;-78
2023/01/18 07:38:21;;;;;;;34.90;24.17;;;;;;;-4.01;100.00;99285.38;5051353;28;20117;-75
2023/01/18 07:40:47;;;;;;;34.78;24.17;;;;;;;-3.98;100.00;99300.13;5051481;28;20029;-75
2023/01/18 07:43:14;;;;;;;34.55;23.85;;;;;;;-4.03;100.00;99295.66;5052178;28;20041;-77
2023/01/18 07:45:40;;;;;;;35.00;23.63;;;;;;;-3.98;100.00;99303.56;5052493;28;20021;-77
2023/01/18 07:48:06;;;;;;;33.05;23.00;;;;;;;-3.95;100.00;99297.66;5051781;28;20029;-76
2023/01/18 07:50:34;;;;;;;33.78;23.05;;;;;;;-3.90;100.00;99302.16;5051682;28;20435;-76
2023/01/18 07:53:05;;;;;;;34.75;24.02;;;;;;;-3.91;100.00;99307.28;5051258;28;20044;-77
2023/01/18 07:55:31;;;;;;;35.88;24.15;;;;;;;-3.89;100.00;99308.19;5053678;28;20037;-76
2023/01/18 07:57:58;;;;;;;33.63;23.23;;;;;;;-3.89;100.00;99311.69;5033537;28;20024;-77
2023/01/18 08:00:24;;;;;;;35.10;23.77;;;;;;;-3.91;100.00;99302.97;5054069;28;20040;-77
2023/01/18 08:02:50;;;;;;;34.25;23.08;;;;;;;-3.87;100.00;99309.16;5037408;28;20341;-74
2023/01/18 08:05:18;;;;;;;32.92;23.17;;;;;;;-3.83;100.00;99311.00;5051863;28;20083;-79
2023/01/18 08:07:45;;;;;;;31.52;22.00;;;;;;;-3.82;100.00;99312.78;5050832;28;20068;-78
2023/01/18 08:10:10;;;;;;;34.30;22.85;;;;;;;-3.74;100.00;99323.38;5048578;28;20124;-76
2023/01/18 08:12:35;;;;;;;32.72;22.27;;;;;;;-3.71;100.00;99326.09;5049803;28;20496;-76
2023/01/18 08:15:01;;;;;;;33.63;22.88;;;;;;;-3.69;100.00;99329.63;5054886;28;20056;-76
2023/01/18 08:17:28;;;;;;;32.75;22.40;;;;;;;-3.68;100.00;99328.81;5056565;28;20456;-75
2023/01/18 08:19:53;;;;;;;33.60;23.15;;;;;;;-3.64;100.00;99333.25;5038180;28;20029;-75
2023/01/18 08:22:19;;;;;;;33.45;22.73;;;;;;;-3.58;100.00;99336.06;5051206;28;20095;-75
2023/01/18 08:24:44;;;;;;;33.00;22.20;;;;;;;-3.56;100.00;99334.41;5051013;28;20095;-76
2023/01/18 08:27:09;;;;;;;33.05;22.52;;;;;;;-3.50;100.00;99339.78;5056913;28;20025;-76
2023/01/18 08:29:35;;;;;;;32.75;20.95;;;;;;;-3.44;100.00;99348.59;5051394;28;20040;-76
2023/01/18 08:32:01;;;;;;;32.58;21.30;;;;;;;-3.39;100.00;99336.75;5050853;28;20069;-77
2023/01/18 08:34:26;;;;;;;33.05;21.67;;;;;;;-3.25;100.00;99342.41;5051061;28;20396;-76
2023/01/18 08:36:52;;;;;;;30.58;20.92;;;;;;;-3.22;100.00;99345.97;5052964;28;20029;-77
2023/01/18 08:39:17;;;;;;;33.50;21.77;;;;;;;-3.17;100.00;99357.34;5051030;28;20068;-76
2023/01/18 08:41:42;;;;;;;32.22;21.30;;;;;;;-3.17;100.00;99359.06;5052144;28;20033;-76
2023/01/18 08:44:08;;;;;;;33.17;22.83;;;;;;;-3.14;100.00;99360.88;5050948;28;20472;-76
2023/01/18 08:46:35;;;;;;;31.15;20.58;;;;;;;-3.15;100.00;99362.56;5034649;28;20495;-76
2023/01/18 08:49:00;;;;;;;32.08;21.23;;;;;;;-3.12;100.00;99366.97;5056054;28;20057;-76
2023/01/18 08:51:26;;;;;;;32.60;21.95;;;;;;;-3.07;100.00;99371.50;5057928;28;20055;-76
2023/01/18 08:53:55;;;;;;;32.42;21.08;;;;;;;-2.96;100.00;99374.44;5054357;28;20056;-76
2023/01/18 08:56:20;;;;;;;31.20;20.38;;;;;;;-2.88;100.00;99379.91;5056819;28;20039;-76
2023/01/18 08:58:46;;;;;;;31.52;20.73;;;;;;;-2.77;100.00;99377.69;5054438;28;20392;-76
2023/01/18 09:01:11;;;;;;;31.27;19.75;;;;;;;-2.67;100.00;99387.50;5054130;28;20071;-76
2023/01/18 09:03:37;;;;;;;30.33;18.50;;;;;;;-2.56;100.00;99385.28;5057996;28;20029;-76
2023/01/18 09:06:04;;;;;;;31.70;19.15;;;;;;;-2.47;100.00;99388.19;5054240;28;20117;-76
2023/01/18 09:08:30;;;;;;;29.52;18.80;;;;;;;-2.42;100.00;99389.22;5054037;28;20108;-76
2023/01/18 09:11:03;;;;;;;29.95;18.73;;;;;;;-2.36;100.00;99389.44;5054670;28;20424;-76
2023/01/18 09:13:30;;;;;;;28.73;18.48;;;;;;;-2.40;100.00;99386.66;5051627;28;20055;-76
2023/01/18 09:16:04;;;;;;;29.40;18.33;;;;;;;-2.37;100.00;99389.38;5054817;28;20045;-76
2023/01/18 09:18:30;;;;;;;28.73;18.20;;;;;;;-2.36;100.00;99401.47;5051869;28;20437;-76
2023/01/18 09:20:56;;;;;;;29.05;18.27;;;;;;;-2.25;100.00;99400.13;5054974;28;20091;-75
2023/01/18 09:23:22;;;;;;;28.83;17.73;;;;;;;-2.12;100.00;99404.88;5054639;28;20033;-76
2023/01/18 09:25:48;;;;;;;29.75;18.02;;;;;;;-1.95;100.00;99413.19;5051004;28;20025;-75
2023/01/18 09:28:15;;;;;;;28.83;17.33;;;;;;;-1.77;100.00;99419.78;5054626;28;20025;-76
2023/01/18 09:30:41;;;;;;;27.80;16.83;;;;;;;-1.64;100.00;99418.44;5054467;28;20033;-75
2023/01/18 09:33:07;;;;;;;27.33;17.13;;;;;;;-1.54;100.00;99419.59;5036103;28;20013;-75
2023/01/18 09:35:32;;;;;;;27.83;16.63;;;;;;;-1.46;100.00;99424.16;5023092;28;20033;-76
2023/01/18 09:37:57;;;;;;;27.52;17.08;;;;;;;-1.43;100.00;99426.88;5053653;28;20025;-76
2023/01/18 09:40:40;;;;;;;26.88;15.98;;;;;;;-1.30;100.00;99429.81;5053367;28;20025;-89
2023/01/18 09:43:12;;;;;;;;;;;;;;;-1.20;100.00;99430.97;5051465;28;20484;-77
2023/01/18 09:45:43;;;;;;;25.90;15.77;;;;;;;-0.72;100.00;99440.97;5053863;28;19952;-77
2023/01/18 09:48:18;;;;;;;27.20;15.93;;;;;;;-0.53;100.00;99438.03;5051945;28;20029;-77
2023/01/18 09:50:44;;;;;;;26.65;15.80;;;;;;;-0.69;100.00;99445.38;5051638;28;20021;-78
2023/01/18 09:53:36;;;;;;;26.00;15.07;;;;;;;-0.61;100.00;99451.63;5052581;28;20431;-77
2023/01/18 09:56:15;;;;;;;26.67;15.43;;;;;;;-0.57;100.00;99453.50;5051321;28;20844;-78
2023/01/18 09:59:02;;;;;;;26.48;15.25;;;;;;;-0.44;100.00;99450.38;5049992;28;20032;-81
2023/01/18 10:01:32;;;;;;;25.70;15.30;;;;;;;-0.34;100.00;99446.31;5053975;28;20025;-79
2023/01/18 10:04:15;;;;;;;26.27;15.23;;;;;;;-0.18;100.00;99452.78;5051823;28;20029;-79
2023/01/18 10:06:57;;;;;;;25.38;15.60;;;;;;;0.10;100.00;99448.25;5052059;28;20021;-79
2023/01/18 10:09:38;;;;;;;25.00;14.82;;;;;;;0.55;100.00;99457.13;5047584;28;20045;-84
2023/01/18 10:12:19;;;;;;;25.45;14.77;;;;;;;0.97;100.00;99459.75;5050717;28;20051;-87
2023/01/18 10:14:57;;;;;;;25.27;14.27;;;;;;;0.98;100.00;99463.25;5057225;28;20097;-75
2023/01/18 10:17:41;;;;;;;26.05;14.27;;;;;;;0.86;100.00;99467.34;5054197;28;20033;-76
2023/01/18 10:20:19;;;;;;;23.60;13.70;;;;;;;0.60;100.00;99468.50;5055772;28;20036;-86
2023/01/18 10:22:51;;;;;;;26.02;14.00;;;;;;;0.51;100.00;99463.94;5054613;28;20033;-87
2023/01/18 10:25:20;;;;;;;25.00;14.23;;;;;;;0.58;100.00;99472.78;5049762;28;20047;-84
2023/01/18 10:27:57;;;;;;;24.92;14.27;;;;;;;0.84;100.00;99463.81;5049541;28;20079;-78
2023/01/18 10:30:46;;;;;;;24.70;14.20;;;;;;;0.97;100.00;99464.97;5049987;28;20063;-78
2023/01/18 10:33:24;;;;;;;25.60;13.77;;;;;;;1.17;100.00;99468.00;5055207;28;20032;-77
2023/01/18 10:35:55;;;;;;;24.90;13.35;;;;;;;1.43;100.00;99465.03;5055030;28;20025;-85
2023/01/18 10:38:25;;;;;;;24.85;13.80;;;;;;;1.49;100.00;99461.66;5052826;28;20032;-76
2023/01/18 10:40:58;;;;;;;24.42;13.27;;;;;;;1.94;100.00;99467.66;5053537;28;20029;-89
2023/01/18 10:43:25;;;;;;;24.40;13.60;;;;;;;1.99;100.00;99469.50;5049045;28;20476;-79
2023/01/18 10:45:52;;;;;;;23.90;13.30;;;;;;;2.13;100.00;99464.53;5053337;28;20075;-79
2023/01/18 10:48:17;;;;;;;24.00;12.65;;;;;;;2.70;100.00;99462.78;5054758;28;20028;-77
2023/01/18 10:50:49;;;;;;;25.73;12.98;;;;;;;2.93;100.00;99472.69;5052531;28;20044;-79
2023/01/18 10:53:26;;;;;;;22.85;12.65;;;;;;;3.19;100.00;99472.13;5056620;28;20032;-79
2023/01/18 10:56:01;;;;;;;23.48;12.07;;;;;;;3.40;100.00;99461.94;5052477;28;20031;-77
2023/01/18 10:58:32;;;;;;;23.88;12.60;;;;;;;3.79;100.00;99470.19;5051785;28;20476;-74
2023/01/18 11:01:00;;;;;;;22.98;11.38;;;;;;;4.24;100.00;99465.34;5055997;28;20111;-90
2023/01/18 11:03:27;;;;;;;22.83;11.98;;;;;;;4.53;100.00;99471.69;5052008;28;20033;-75
2023/01/18 11:06:03;;;;;;;23.38;11.27;;;;;;;4.59;100.00;99475.19;5052084;28;20108;-79
2023/01/18 11:08:34;;;;;;;22.80;11.20;;;;;;;4.82;100.00;99475.34;5050791;28;20361;-88
2023/01/18 11:11:06;;;;;;;21.92;10.73;;;;;;;4.82;100.00;99478.84;5050633;28;20029;-79
2023/01/18 11:13:43;;;;;;;22.77;11.00;;;;;;;4.91;100.00;99482.38;5049093;28;20049;-84
2023/01/18 11:16:12;;;;;;;22.30;10.80;;;;;;;5.19;100.00;99473.78;5052670;28;20031;-82
2023/01/18 11:19:14;;;;;;;21.65;10.48;;;;;;;5.73;100.00;99486.22;5052902;28;20021;-79
2023/01/18 11:21:40;;;;;;;22.98;10.50;;;;;;;6.47;100.00;99483.69;5050436;28;20035;-84
2023/01/18 11:24:15;;;;;;;21.23;9.85;;;;;;;6.32;100.00;99483.69;5052579;28;20029;-81
2023/01/18 11:26:54;;;;;;;21.30;10.13;;;;;;;6.20;100.00;99482.78;5034739;28;20035;-85
2023/01/18 11:29:23;;;;;;;23.13;10.52;;;;;;;6.10;100.00;99473.16;5052696;28;20036;-75
2023/01/18 11:31:51;;;;;;;22.23;10.60;;;;;;;6.25;100.00;99470.56;5052518;28;20021;-75
2023/01/18 11:34:26;;;;;;;22.83;10.30;;;;;;;6.33;100.00;99469.69;5034367;28;20415;-75
2023/01/18 11:36:51;;;;;;;21.70;9.95;;;;;;;6.71;100.00;99467.00;5052583;28;20070;-74
2023/01/18 11:39:18;;;;;;;21.40;9.70;;;;;;;6.73;100.00;99473.16;5034508;28;20524;-74
2023/01/18 11:41:43;;;;;;;21.63;9.85;;;;;;;6.73;100.00;99467.91;5052259;28;20104;-75
2023/01/18 11:44:16;;;;;;;21.08;10.02;;;;;;;6.71;100.00;99474.88;5052432;28;20117;-74
2023/01/18 11:46:43;;;;;;;22.45;9.65;;;;;;;6.53;100.00;99470.53;5052653;28;20024;-75
2023/01/18 11:49:23;;;;;;;22.83;10.18;;;;;;;6.62;100.00;99470.53;5048985;28;20032;-77